Ana Sayfa
METAR-TAF:

METAR-TAF

Havaalanları :

Stockholm-Arlanda Havalimanı

Stokholm-Arlanda, İsveç

Enlem: 59-39N, Boylam: 017-57E, yükseklik: 38 m

Güncel hava durumu gözlemi

Rapor saat 16:20 UTC de 26 dakika önce yapıldı.
Rüzgar güney/güneybatıdan 6 kt
Sıcaklık 14°C
Nem 72%
Basınç 1006 hPa
Görüş mesafesi 10 km veya daha fazla
1500 m altında bulut yok ve kümülonimbus yok

METAR: ESSA 221620Z 21006KT CAVOK 14/09 Q1006 NOSIG

Saat: 18:46 (16:46 UTC)

Tahmin

Rapor saat 11:30 UTC de 5 saat ve 16 dakika önce yapıldı.
Ayın 22'si saat 12 UTC'den ayın 23'si saat 12 UTC'ye kadar geçerli Tahmin
Rüzgar batı/güneybatıdan 12 kt
Görüş mesafesi 10 km veya daha fazla
1500 m altında bulut yok ve kümülonimbus yok
Dönüşüyor
ayın 22'si saat 15 UTC'den ayın 22'si saat 18 UTC'ye kadar
Rüzgar güneydan 5 kt
Olasılık 40%
ayın 23'si saat 00 UTC'den ayın 23'si saat 06 UTC'ye kadar
Görüş mesafesi: 2000 m
Pus

TAF: ESSA 221130Z 2212/2312 25012KT CAVOK BECMG 2215/2218 19005KT PROB40 2300/2306 2000 BR

4.000'den fazla havaalanı için hava durumu gözlemleri ve tahminleri (METAR ve TAF raporları).

Kullanılabilir istasyonlar harita üzerinde sarı ve kırmızı noktalarla gösterilir.

İstasyonun adını görmek için fareyi noktanın üzerinde gezdirin.

Sonrasında hava gözlem ve tahminlerini görmek için tıklayın.

Haritayı değiştirmek için: yaklaştırmak için siyah artı işaretli yeşil düğmeye ve uzaklaştırmak için de eksi işaretli düğmeye hızla tıklayın; bitişik haritalar için yeşil okları kullanın.


METAR-TAF: